createdAt,value
2018-09-20T00:00:36.355Z,22.30
2018-09-20T00:03:04.849Z,22.30
2018-09-20T00:05:33.313Z,22.30
2018-09-20T00:08:01.798Z,22.30
2018-09-20T00:10:30.319Z,22.20
2018-09-20T00:12:58.909Z,22.20
2018-09-20T00:15:27.354Z,22.20
2018-09-20T00:17:55.848Z,22.20
2018-09-20T00:20:24.286Z,22.20
2018-09-20T00:22:52.814Z,22.10
2018-09-20T00:25:21.227Z,22.10
2018-09-20T00:27:49.779Z,22.00
2018-09-20T00:30:18.403Z,22.00
2018-09-20T00:32:46.841Z,22.00
2018-09-20T00:35:15.404Z,22.00
2018-09-20T00:37:43.880Z,22.00
2018-09-20T00:40:12.398Z,21.90
2018-09-20T00:42:40.866Z,21.90
2018-09-20T00:45:09.373Z,21.90
2018-09-20T00:47:37.823Z,21.90
2018-09-20T00:50:06.461Z,21.80
2018-09-20T00:52:34.974Z,21.80
2018-09-20T00:55:03.491Z,21.80
2018-09-20T00:57:31.993Z,21.70
2018-09-20T01:00:00.502Z,21.70
2018-09-20T01:02:28.878Z,21.70
2018-09-20T01:04:57.283Z,21.60
2018-09-20T01:07:25.688Z,21.60
2018-09-20T01:09:54.250Z,21.70
2018-09-20T01:12:22.670Z,21.60
2018-09-20T01:14:51.223Z,21.60
2018-09-20T01:17:19.647Z,21.60
2018-09-20T01:19:48.160Z,21.60
2018-09-20T01:22:16.647Z,21.50
2018-09-20T01:24:45.041Z,21.50
2018-09-20T01:27:13.518Z,21.50
2018-09-20T01:29:42.038Z,21.40
2018-09-20T01:32:10.540Z,21.40
2018-09-20T01:34:38.873Z,21.40
2018-09-20T01:37:07.316Z,21.40
2018-09-20T01:39:35.753Z,21.40
2018-09-20T01:42:04.244Z,21.40
2018-09-20T01:44:32.766Z,21.40
2018-09-20T01:47:01.259Z,21.40
2018-09-20T01:49:29.679Z,21.40
2018-09-20T01:51:58.097Z,21.40
2018-09-20T01:54:26.534Z,21.40
2018-09-20T01:56:55.052Z,21.40
2018-09-20T01:59:23.420Z,21.40
2018-09-20T02:01:51.886Z,21.40
2018-09-20T02:04:20.506Z,21.40
2018-09-20T02:06:48.982Z,21.30
2018-09-20T02:09:17.458Z,21.30
2018-09-20T02:11:45.905Z,21.30
2018-09-20T02:14:14.419Z,21.30
2018-09-20T02:16:42.877Z,21.20
2018-09-20T02:19:11.383Z,21.20
2018-09-20T02:21:39.872Z,21.20
2018-09-20T02:24:08.443Z,21.20
2018-09-20T02:26:36.898Z,21.10
2018-09-20T02:29:05.427Z,21.10
2018-09-20T02:31:33.924Z,21.10
2018-09-20T02:34:02.478Z,21.00
2018-09-20T02:36:30.881Z,21.00
2018-09-20T02:38:59.668Z,20.90
2018-09-20T02:41:28.186Z,20.90
2018-09-20T02:43:56.593Z,20.90
2018-09-20T02:46:25.036Z,20.90
2018-09-20T02:48:53.515Z,20.80
2018-09-20T02:51:21.952Z,20.80
2018-09-20T02:53:50.412Z,20.80
2018-09-20T02:56:18.850Z,20.70
2018-09-20T02:58:47.339Z,20.70
2018-09-20T03:01:15.735Z,20.70
2018-09-20T03:03:44.252Z,20.60
2018-09-20T03:06:12.907Z,20.60
2018-09-20T03:08:41.311Z,20.60
2018-09-20T03:11:09.706Z,20.50
2018-09-20T03:13:38.159Z,20.50
2018-09-20T03:16:36.843Z,20.50
2018-09-20T03:19:05.746Z,20.50
2018-09-20T03:21:34.143Z,20.50
2018-09-20T03:24:02.627Z,20.50
2018-09-20T03:26:31.157Z,20.50
2018-09-20T03:28:59.552Z,20.50
2018-09-20T03:31:27.980Z,20.40
2018-09-20T03:33:56.529Z,20.40
2018-09-20T03:36:24.946Z,20.30
2018-09-20T03:38:53.345Z,20.30
2018-09-20T03:41:21.742Z,20.30
2018-09-20T03:43:50.152Z,20.30
2018-09-20T03:46:18.609Z,20.30
2018-09-20T03:48:47.163Z,20.30
2018-09-20T03:51:15.633Z,20.30
2018-09-20T03:53:44.169Z,20.30
2018-09-20T03:56:12.616Z,20.40
2018-09-20T03:58:41.110Z,20.30
2018-09-20T04:01:09.536Z,20.30
2018-09-20T04:03:38.057Z,20.30
2018-09-20T04:06:06.768Z,20.30
2018-09-20T04:08:35.235Z,20.30
2018-09-20T04:11:03.595Z,20.30
2018-09-20T04:13:32.069Z,20.30
2018-09-20T04:16:00.434Z,20.30
2018-09-20T04:18:28.970Z,20.30
2018-09-20T04:20:57.372Z,20.20
2018-09-20T04:23:25.805Z,20.20
2018-09-20T04:25:54.210Z,20.20
2018-09-20T04:28:22.643Z,20.30
2018-09-20T04:30:51.136Z,20.20
2018-09-20T04:33:19.608Z,20.20
2018-09-20T04:35:48.110Z,20.30
2018-09-20T04:38:16.500Z,20.20
2018-09-20T04:40:45.030Z,20.20
2018-09-20T04:43:13.574Z,20.20
2018-09-20T04:45:42.119Z,20.20
2018-09-20T04:48:10.617Z,20.20
2018-09-20T04:50:39.105Z,20.20
2018-09-20T04:53:07.747Z,20.20
2018-09-20T04:55:36.131Z,20.20
2018-09-20T04:58:04.690Z,20.20
2018-09-20T05:00:33.135Z,20.20
2018-09-20T05:03:01.548Z,20.10
2018-09-20T05:05:30.034Z,20.10
2018-09-20T05:07:58.407Z,20.10
2018-09-20T05:10:27.034Z,20.10
2018-09-20T05:12:55.560Z,20.10
2018-09-20T05:15:24.414Z,20.10
2018-09-20T05:17:52.871Z,20.00
2018-09-20T05:20:21.252Z,20.00
2018-09-20T05:22:49.725Z,20.00
2018-09-20T05:25:18.227Z,20.00
2018-09-20T05:27:46.746Z,20.00
2018-09-20T05:30:15.295Z,20.00
2018-09-20T05:32:43.760Z,20.00
2018-09-20T05:35:12.220Z,20.00
2018-09-20T05:37:40.645Z,20.00
2018-09-20T05:40:09.187Z,20.10
2018-09-20T05:42:37.569Z,20.10
2018-09-20T05:45:06.616Z,20.10
2018-09-20T05:47:35.103Z,20.00
2018-09-20T05:50:03.695Z,20.10
2018-09-20T05:52:32.199Z,20.10
2018-09-20T05:55:00.717Z,20.10
2018-09-20T05:57:29.097Z,20.10
2018-09-20T05:59:57.498Z,20.10
2018-09-20T06:02:26.683Z,20.10
2018-09-20T06:04:55.409Z,20.10
2018-09-20T06:07:23.816Z,20.10
2018-09-20T06:09:52.288Z,20.20
2018-09-20T06:12:20.773Z,20.20
2018-09-20T06:14:49.250Z,20.20
2018-09-20T06:17:17.677Z,20.20
2018-09-20T06:19:46.115Z,20.20
2018-09-20T06:22:14.477Z,20.20
2018-09-20T06:24:42.981Z,20.20
2018-09-20T06:27:11.672Z,20.30
2018-09-20T06:29:40.063Z,20.30
2018-09-20T06:32:08.614Z,20.30
2018-09-20T06:34:37.194Z,20.30
2018-09-20T06:37:06.003Z,20.40
2018-09-20T06:39:34.415Z,20.50
2018-09-20T06:42:02.942Z,20.50
2018-09-20T06:44:31.409Z,20.50
2018-09-20T06:46:59.823Z,20.50
2018-09-20T06:49:28.314Z,20.60
2018-09-20T06:51:56.676Z,20.60
2018-09-20T06:54:25.110Z,20.70
2018-09-20T06:56:53.555Z,20.70
2018-09-20T06:59:22.946Z,20.80
2018-09-20T07:01:51.433Z,20.80
2018-09-20T07:04:19.875Z,20.90
2018-09-20T07:06:48.284Z,20.90
2018-09-20T07:09:16.698Z,20.90
2018-09-20T07:11:45.109Z,20.90
2018-09-20T07:14:13.480Z,20.90
2018-09-20T07:16:41.922Z,21.00
2018-09-20T07:19:10.334Z,21.00
2018-09-20T07:21:38.701Z,21.00
2018-09-20T07:24:07.181Z,21.10
2018-09-20T07:26:35.554Z,21.10
2018-09-20T07:29:04.061Z,21.10
2018-09-20T07:31:32.480Z,21.10
2018-09-20T07:34:01.257Z,21.10
2018-09-20T07:36:29.987Z,21.10
2018-09-20T07:38:58.408Z,21.10
2018-09-20T07:41:26.807Z,21.10
2018-09-20T07:43:55.226Z,21.20
2018-09-20T07:46:23.637Z,21.20
2018-09-20T07:48:52.085Z,21.30
2018-09-20T07:51:20.630Z,21.30
2018-09-20T07:53:49.060Z,21.30
2018-09-20T07:56:17.544Z,21.40
2018-09-20T07:58:45.958Z,21.40
2018-09-20T08:01:14.436Z,21.50
2018-09-20T08:03:42.841Z,21.50
2018-09-20T08:06:11.243Z,21.60
2018-09-20T08:08:39.711Z,21.60
2018-09-20T08:11:08.242Z,21.70
2018-09-20T08:13:36.650Z,21.70
2018-09-20T08:16:05.104Z,21.80
2018-09-20T08:18:33.545Z,21.90
2018-09-20T08:21:02.044Z,21.90
2018-09-20T08:23:30.471Z,22.00
2018-09-20T08:25:59.222Z,22.00
2018-09-20T08:28:27.623Z,22.20
2018-09-20T08:30:56.154Z,22.20
2018-09-20T08:33:24.534Z,22.30
2018-09-20T08:35:53.031Z,22.40
2018-09-20T08:38:21.411Z,22.50
2018-09-20T08:40:49.922Z,22.50
2018-09-20T08:43:18.265Z,22.60
2018-09-20T08:45:46.683Z,22.60
2018-09-20T08:48:15.204Z,22.70
2018-09-20T08:50:43.639Z,22.70
2018-09-20T08:53:12.194Z,22.80
2018-09-20T08:55:40.651Z,22.90
2018-09-20T08:58:09.019Z,23.00
2018-09-20T09:00:37.577Z,23.10
2018-09-20T09:03:06.054Z,23.20
2018-09-20T09:05:34.582Z,23.30
2018-09-20T09:08:03.056Z,23.40
2018-09-20T09:10:31.521Z,23.60
2018-09-20T09:12:59.942Z,23.70
2018-09-20T09:15:28.395Z,23.80
2018-09-20T09:17:56.803Z,23.90
2018-09-20T09:20:25.538Z,24.00
2018-09-20T09:22:53.993Z,24.10
2018-09-20T09:25:22.404Z,24.20
2018-09-20T09:27:50.934Z,24.30
2018-09-20T09:30:19.392Z,24.40
2018-09-20T09:32:47.819Z,24.50
2018-09-20T09:35:16.227Z,24.60
2018-09-20T09:37:44.590Z,24.70
2018-09-20T09:40:13.109Z,24.70
2018-09-20T09:42:41.419Z,24.80
2018-09-20T09:45:09.815Z,24.80
2018-09-20T09:47:38.291Z,24.90
2018-09-20T09:50:06.920Z,25.00
2018-09-20T09:52:35.302Z,25.10
2018-09-20T09:55:04.199Z,25.10
2018-09-20T09:57:32.576Z,25.20
2018-09-20T10:00:01.063Z,25.30
2018-09-20T10:02:29.580Z,25.40
2018-09-20T10:04:57.981Z,25.60
2018-09-20T10:07:26.491Z,25.70
2018-09-20T10:09:54.910Z,25.80
2018-09-20T10:12:23.388Z,25.90
2018-09-20T10:14:51.942Z,26.00
2018-09-20T10:17:20.329Z,26.10
2018-09-20T10:19:48.762Z,26.30
2018-09-20T10:22:17.186Z,26.40
2018-09-20T10:24:45.706Z,26.50
2018-09-20T10:27:14.210Z,26.70
2018-09-20T10:29:42.684Z,26.80
2018-09-20T10:32:11.138Z,26.90
2018-09-20T10:34:39.580Z,27.20
2018-09-20T10:37:07.977Z,27.50
2018-09-20T10:39:36.454Z,27.70
2018-09-20T10:42:04.969Z,28.00
2018-09-20T10:44:33.351Z,28.20
2018-09-20T10:47:01.777Z,28.30
2018-09-20T10:49:30.148Z,28.40
2018-09-20T10:51:58.569Z,28.60
2018-09-20T10:54:27.050Z,28.70
2018-09-20T10:56:55.506Z,28.80
2018-09-20T10:59:23.889Z,28.80
2018-09-20T11:01:52.326Z,29.00
2018-09-20T11:04:20.849Z,29.20
2018-09-20T11:06:49.389Z,29.20
2018-09-20T11:09:18.669Z,29.30
2018-09-20T11:11:47.071Z,29.40
2018-09-20T11:14:16.417Z,29.50
2018-09-20T11:16:46.091Z,29.70
2018-09-20T11:19:15.709Z,29.80
2018-09-20T11:21:44.139Z,30.00
2018-09-20T11:24:12.631Z,30.10
2018-09-20T11:26:41.153Z,30.20
2018-09-20T11:29:09.613Z,30.40
2018-09-20T11:31:38.133Z,30.50
2018-09-20T11:34:06.746Z,30.60
2018-09-20T11:36:35.248Z,30.60
2018-09-20T11:39:04.592Z,30.70
2018-09-20T11:41:33.077Z,30.90
2018-09-20T11:44:01.502Z,31.00
2018-09-20T11:46:29.872Z,31.00
2018-09-20T11:48:58.287Z,31.10
2018-09-20T11:51:26.676Z,31.30
2018-09-20T11:53:55.077Z,31.30
2018-09-20T11:56:23.720Z,31.30
2018-09-20T11:58:52.117Z,31.40
2018-09-20T12:01:20.604Z,31.50
2018-09-20T12:03:48.978Z,31.60
2018-09-20T12:06:24.099Z,31.80
2018-09-20T12:08:52.506Z,31.80
2018-09-20T12:11:20.902Z,32.00
2018-09-20T12:13:49.311Z,32.10
2018-09-20T12:16:17.802Z,32.10
2018-09-20T12:18:46.335Z,32.20
2018-09-20T12:21:14.693Z,32.20
2018-09-20T12:23:43.178Z,32.30
2018-09-20T12:26:11.644Z,32.40
2018-09-20T12:28:40.063Z,32.30
2018-09-20T12:31:08.506Z,32.20
2018-09-20T12:33:36.878Z,32.10
2018-09-20T12:36:05.371Z,32.00
2018-09-20T12:38:33.816Z,32.10
2018-09-20T12:41:02.212Z,32.20
2018-09-20T12:43:30.728Z,32.40
2018-09-20T12:45:59.301Z,32.50
2018-09-20T12:48:27.815Z,32.60
2018-09-20T12:50:56.223Z,32.60
2018-09-20T12:53:24.579Z,32.70
2018-09-20T12:55:53.031Z,32.90
2018-09-20T12:58:25.690Z,33.00
2018-09-20T13:00:54.094Z,33.10
2018-09-20T13:03:22.443Z,33.10
2018-09-20T13:05:50.869Z,33.20
2018-09-20T13:08:19.428Z,33.20
2018-09-20T13:10:47.831Z,33.20
2018-09-20T13:13:16.203Z,32.90
2018-09-20T13:15:44.777Z,32.70
2018-09-20T13:18:13.278Z,32.70
2018-09-20T13:20:41.745Z,32.70
2018-09-20T13:23:10.907Z,32.80
2018-09-20T13:25:39.344Z,32.90
2018-09-20T13:28:08.021Z,32.90
2018-09-20T13:30:36.516Z,33.00
2018-09-20T13:33:04.926Z,33.00
2018-09-20T13:35:33.574Z,33.10
2018-09-20T13:38:02.088Z,33.10
2018-09-20T13:40:30.512Z,33.10
2018-09-20T13:42:58.921Z,33.20
2018-09-20T13:45:27.333Z,33.10
2018-09-20T13:47:55.692Z,33.20
2018-09-20T13:50:24.117Z,33.20
2018-09-20T13:52:52.496Z,33.20
2018-09-20T13:55:21.001Z,33.20
2018-09-20T13:57:49.370Z,33.20
2018-09-20T14:00:17.778Z,33.20
2018-09-20T14:02:46.163Z,33.20
2018-09-20T14:05:14.734Z,33.10
2018-09-20T14:07:43.223Z,33.00
2018-09-20T14:10:11.642Z,32.90
2018-09-20T14:12:40.141Z,32.80
2018-09-20T14:15:08.662Z,32.70
2018-09-20T14:17:37.455Z,32.50
2018-09-20T14:20:06.275Z,32.40
2018-09-20T14:22:34.634Z,32.40
2018-09-20T14:25:03.164Z,32.40
2018-09-20T14:27:31.689Z,32.40
2018-09-20T14:30:00.105Z,32.40
2018-09-20T14:32:28.613Z,32.50
2018-09-20T14:34:57.028Z,32.40
2018-09-20T14:37:25.515Z,32.50
2018-09-20T14:39:54.036Z,32.50
2018-09-20T14:42:22.461Z,32.60
2018-09-20T14:44:50.933Z,32.60
2018-09-20T14:47:19.392Z,32.50
2018-09-20T14:49:47.989Z,32.40
2018-09-20T14:52:16.441Z,32.40
2018-09-20T14:54:44.847Z,32.40
2018-09-20T14:57:13.321Z,32.40
2018-09-20T14:59:41.677Z,32.40
2018-09-20T15:02:10.070Z,32.40
2018-09-20T15:04:38.466Z,32.40
2018-09-20T15:07:07.007Z,32.40
2018-09-20T15:09:35.445Z,32.30
2018-09-20T15:12:03.902Z,32.20
2018-09-20T15:14:32.383Z,32.20
2018-09-20T15:17:00.792Z,32.10
2018-09-20T15:19:29.315Z,31.90
2018-09-20T15:21:57.807Z,31.80
2018-09-20T15:24:26.207Z,31.70
2018-09-20T15:26:54.878Z,31.60
2018-09-20T15:29:23.459Z,31.60
2018-09-20T15:31:52.524Z,31.50
2018-09-20T15:34:20.934Z,31.40
2018-09-20T15:36:49.371Z,31.30
2018-09-20T15:39:18.023Z,31.20
2018-09-20T15:41:46.408Z,31.10
2018-09-20T15:44:14.827Z,31.00
2018-09-20T15:46:43.343Z,30.90
2018-09-20T15:49:11.998Z,30.90
2018-09-20T15:51:40.523Z,30.80
2018-09-20T15:54:08.937Z,30.70
2018-09-20T15:56:37.375Z,30.60
2018-09-20T15:59:06.051Z,30.60
2018-09-20T16:01:34.666Z,30.50
2018-09-20T16:04:03.061Z,30.40
2018-09-20T16:06:31.510Z,30.40
2018-09-20T16:09:00.045Z,30.30
2018-09-20T16:11:28.594Z,30.20
2018-09-20T16:13:57.052Z,30.10
2018-09-20T16:16:25.496Z,30.10
2018-09-20T16:18:53.998Z,30.00
2018-09-20T16:21:22.513Z,30.00
2018-09-20T16:23:50.899Z,29.90
2018-09-20T16:26:19.410Z,29.90
2018-09-20T16:29:01.130Z,29.90
2018-09-20T16:31:51.935Z,29.80
2018-09-20T16:35:02.594Z,29.80
2018-09-20T16:38:44.437Z,29.70
2018-09-20T16:41:16.069Z,29.60
2018-09-20T16:43:44.614Z,29.60
2018-09-20T16:46:13.120Z,29.50
2018-09-20T16:48:41.735Z,29.50
2018-09-20T16:51:10.302Z,29.40
2018-09-20T16:53:38.776Z,29.40
2018-09-20T16:56:07.985Z,29.30
2018-09-20T16:58:36.343Z,29.30
2018-09-20T17:01:04.962Z,29.20
2018-09-20T17:03:33.403Z,29.10
2018-09-20T17:06:01.898Z,29.10
2018-09-20T17:08:30.445Z,29.10
2018-09-20T17:10:58.942Z,29.00
2018-09-20T17:13:27.531Z,28.90
2018-09-20T17:15:55.984Z,28.90
2018-09-20T17:18:24.447Z,28.90
2018-09-20T17:20:52.867Z,28.80
2018-09-20T17:23:21.444Z,28.70
2018-09-20T17:25:49.838Z,28.70
2018-09-20T17:28:18.331Z,28.70
2018-09-20T17:30:46.775Z,28.60
2018-09-20T17:33:15.405Z,28.60
2018-09-20T17:35:44.264Z,28.40
2018-09-20T17:38:13.165Z,28.30
2018-09-20T17:40:44.172Z,28.30
2018-09-20T17:43:15.620Z,28.20
2018-09-20T17:45:44.288Z,28.20
2018-09-20T17:48:12.788Z,28.10
2018-09-20T17:50:41.674Z,28.00
2018-09-20T17:53:10.927Z,28.00
2018-09-20T17:55:40.084Z,27.90
2018-09-20T17:58:09.191Z,27.90
2018-09-20T18:00:37.632Z,27.80
2018-09-20T18:03:06.202Z,27.70
2018-09-20T18:05:35.579Z,27.70
2018-09-20T18:08:04.944Z,27.60
2018-09-20T18:10:34.249Z,27.50
2018-09-20T18:13:03.386Z,27.40
2018-09-20T18:15:32.520Z,27.30
2018-09-20T18:18:01.118Z,27.30
2018-09-20T18:20:30.404Z,27.20
2018-09-20T18:22:59.905Z,27.20
2018-09-20T18:25:29.131Z,27.20
2018-09-20T18:27:58.421Z,27.20
2018-09-20T18:30:28.397Z,27.10
2018-09-20T18:32:56.909Z,27.00
2018-09-20T18:35:26.247Z,26.90
2018-09-20T18:37:56.071Z,26.90
2018-09-20T18:40:24.581Z,26.90
2018-09-20T18:42:53.682Z,26.80
2018-09-20T18:45:22.153Z,26.80
2018-09-20T18:47:50.757Z,26.60
2018-09-20T18:50:19.170Z,26.50
2018-09-20T18:52:47.718Z,26.40
2018-09-20T18:55:16.212Z,26.30
2018-09-20T18:57:44.693Z,26.20
2018-09-20T19:00:13.261Z,26.20
2018-09-20T19:02:41.753Z,26.10
2018-09-20T19:05:10.236Z,26.00
2018-09-20T19:07:38.754Z,26.00
2018-09-20T19:10:07.258Z,25.90
2018-09-20T19:12:35.751Z,26.00
2018-09-20T19:15:04.678Z,25.90
2018-09-20T19:17:33.140Z,25.90
2018-09-20T19:20:01.674Z,25.80
2018-09-20T19:22:30.125Z,25.70
2018-09-20T19:24:58.639Z,25.70
2018-09-20T19:27:27.193Z,25.60
2018-09-20T19:29:55.743Z,25.50
2018-09-20T19:32:24.184Z,25.40
2018-09-20T19:34:52.788Z,25.40
2018-09-20T19:37:21.419Z,25.40
2018-09-20T19:39:50.042Z,25.50
2018-09-20T19:42:18.593Z,25.40
2018-09-20T19:44:47.093Z,25.30
2018-09-20T19:47:15.856Z,25.30
2018-09-20T19:49:44.485Z,25.30
2018-09-20T19:52:13.195Z,25.20
2018-09-20T19:54:41.596Z,25.30
2018-09-20T19:57:10.047Z,25.20
2018-09-20T19:59:38.622Z,25.20
2018-09-20T20:02:07.241Z,25.10
2018-09-20T20:04:35.944Z,25.10
2018-09-20T20:07:04.404Z,25.10
2018-09-20T20:09:33.006Z,25.00
2018-09-20T20:12:01.479Z,25.10
2018-09-20T20:14:29.913Z,25.00
2018-09-20T20:16:58.489Z,25.00
2018-09-20T20:19:27.015Z,25.00
2018-09-20T20:21:55.349Z,24.90
2018-09-20T20:24:23.815Z,24.90
2018-09-20T20:26:52.337Z,24.80
2018-09-20T20:29:20.911Z,24.70
2018-09-20T20:31:49.324Z,24.70
2018-09-20T20:34:17.907Z,24.70
2018-09-20T20:36:46.442Z,24.70
2018-09-20T20:39:14.862Z,24.70
2018-09-20T20:41:43.378Z,24.60
2018-09-20T20:44:11.886Z,24.60
2018-09-20T20:46:40.324Z,24.60
2018-09-20T20:49:08.849Z,24.50
2018-09-20T20:51:37.524Z,24.50
2018-09-20T20:54:06.005Z,24.50
2018-09-20T20:56:34.481Z,24.40
2018-09-20T20:59:03.068Z,24.40
2018-09-20T21:01:31.439Z,24.30
2018-09-20T21:03:59.851Z,24.40
2018-09-20T21:06:28.287Z,24.40
2018-09-20T21:08:56.771Z,24.40
2018-09-20T21:11:25.215Z,24.40
2018-09-20T21:13:53.826Z,24.30
2018-09-20T21:16:22.339Z,24.30
2018-09-20T21:18:50.783Z,24.20
2018-09-20T21:21:19.193Z,24.30
2018-09-20T21:23:47.793Z,24.30
2018-09-20T21:26:16.302Z,24.30
2018-09-20T21:28:44.770Z,24.30
2018-09-20T21:31:13.329Z,24.30
2018-09-20T21:33:41.755Z,24.30
2018-09-20T21:36:10.150Z,24.30
2018-09-20T21:38:38.543Z,24.20
2018-09-20T21:41:06.968Z,24.20
2018-09-20T21:43:35.454Z,24.00
2018-09-20T21:46:04.084Z,24.00
2018-09-20T21:48:32.690Z,23.90
2018-09-20T21:51:01.139Z,23.90
2018-09-20T21:53:29.539Z,23.90
2018-09-20T21:55:57.945Z,23.90
2018-09-20T21:58:26.374Z,23.90
2018-09-20T22:01:00.148Z,23.90
2018-09-20T22:03:28.620Z,23.80
2018-09-20T22:05:57.142Z,23.80
2018-09-20T22:08:25.590Z,23.80
2018-09-20T22:10:54.115Z,23.70
2018-09-20T22:13:22.546Z,23.70
2018-09-20T22:15:50.927Z,23.60
2018-09-20T22:18:19.358Z,23.60
2018-09-20T22:20:47.826Z,23.60
2018-09-20T22:23:16.338Z,23.50
2018-09-20T22:25:44.770Z,23.50
2018-09-20T22:28:13.212Z,23.50
2018-09-20T22:30:41.709Z,23.50
2018-09-20T22:33:10.141Z,23.40
2018-09-20T22:35:38.539Z,23.40
2018-09-20T22:38:06.982Z,23.30
2018-09-20T22:40:35.470Z,23.20
2018-09-20T22:43:03.990Z,23.20
2018-09-20T22:45:32.450Z,23.20
2018-09-20T22:48:00.863Z,23.10
2018-09-20T22:50:29.223Z,23.10
2018-09-20T22:52:57.666Z,23.00
2018-09-20T22:55:26.225Z,23.00
2018-09-20T22:57:54.844Z,22.90
2018-09-20T23:00:23.836Z,22.80
2018-09-20T23:02:53.847Z,22.80
2018-09-20T23:05:22.314Z,22.80
2018-09-20T23:07:50.835Z,22.70
2018-09-20T23:10:19.274Z,22.70
2018-09-20T23:12:47.665Z,22.70
2018-09-20T23:15:16.027Z,22.70
2018-09-20T23:17:44.523Z,22.60
2018-09-20T23:20:13.026Z,22.60
2018-09-20T23:22:41.536Z,22.60
2018-09-20T23:25:09.912Z,22.50
2018-09-20T23:27:38.354Z,22.50
2018-09-20T23:30:06.941Z,22.40
2018-09-20T23:32:35.493Z,22.40
2018-09-20T23:35:04.029Z,22.40
2018-09-20T23:37:32.474Z,22.40
2018-09-20T23:40:01.047Z,22.40
2018-09-20T23:42:29.482Z,22.40
2018-09-20T23:44:57.866Z,22.50
2018-09-20T23:47:26.361Z,22.50
2018-09-20T23:49:54.798Z,22.50
2018-09-20T23:52:23.153Z,22.50
2018-09-20T23:54:51.803Z,22.50
2018-09-20T23:57:20.262Z,22.40
2018-09-20T23:59:48.721Z,22.40
